PWSweather.com
Personal Weather Stations
Station Observations
KPAAUBUR15
Lake Wynonah, Auburn, PA 17922

Lake WynonahAuburn, PA 17922

Lat: 40.582723, Lon: -76.193106

Elevation: 724

Station Type: Davis Vantage Pro2

http://WynonahWeather.com

Latest ConditionsUpdated 10:00:00 AM EST Wednesday, Nov 21, 2018
Currently Today's Max Today's Min Today's Average
Temperature 36.7°F2.6°C 36.7°F2.6°C 29.0°F-1.7°C 32.4°F0.2°C
Dew Point 29.8°F-1.2°C 29.8°F-1.2°C 24.3°F-4.3°C 26.2°F-3.2°C
Winds 1.2 mph SW1.9 kmh SW 3.5 mph -5.6 kmh - - 0.2 mph 0.3 kmh
Wind Gusts 3.5 mph5.6 kmh 9.2 mph14.8 kmh - -
Humidity 76% 85% 70% 78%
Pressure 30.06 in1017.9 mb 30.08 in1018.6 mb 30.05 in1017.6 mb -
Hour Temp Dew Point Humidity Winds Wind Gusts Pressure Precip Precip Rate Daily Precip Total
10:00 AM 36.7°F2.6°C 29.8°F-1.2°C 76% 1.2 mph SW1.9 kmh SW 3.5 mph5.6 kmh 30.06 in1017.9 mb - 0.00 in0.0 mm 0.00 in0.0 mm
09:55 AM 36.5°F2.5°C 29.7°F-1.3°C 76% Calm Calm 5.8 mph9.3 kmh 30.06 in1017.9 mb - 0.00 in0.0 mm 0.00 in0.0 mm
09:50 AM 36.4°F2.4°C 29.6°F-1.3°C 76% Calm Calm 3.5 mph5.6 kmh 30.06 in1017.9 mb - 0.00 in0.0 mm 0.00 in0.0 mm
09:45 AM 36.3°F2.4°C 29.5°F-1.4°C 76% 1.2 mph WSW1.9 kmh WSW 3.5 mph5.6 kmh 30.06 in1017.9 mb - 0.00 in0.0 mm 0.00 in0.0 mm
09:40 AM 36.1°F2.3°C 29.6°F-1.3°C 77% Calm Calm 1.2 mph1.9 kmh 30.06 in1017.9 mb - 0.00 in0.0 mm 0.00 in0.0 mm
09:35 AM 36.0°F2.2°C 29.5°F-1.4°C 77% 2.3 mph WSW3.7 kmh WSW 3.5 mph5.6 kmh 30.06 in1017.9 mb - 0.00 in0.0 mm 0.00 in0.0 mm
09:30 AM 35.9°F2.2°C 29.4°F-1.4°C 77% 1.2 mph S1.9 kmh S 3.5 mph5.6 kmh 30.06 in1017.9 mb - 0.00 in0.0 mm 0.00 in0.0 mm
09:25 AM 35.7°F2.1°C 29.2°F-1.6°C 77% Calm Calm -- 30.06 in1017.9 mb - 0.00 in0.0 mm 0.00 in0.0 mm
09:20 AM 35.5°F1.9°C 29.3°F-1.5°C 78% 1.2 mph WSW1.9 kmh WSW 4.6 mph7.4 kmh 30.06 in1017.9 mb - 0.00 in0.0 mm 0.00 in0.0 mm
09:15 AM 35.3°F1.8°C 29.1°F-1.6°C 78% 3.5 mph WSW5.6 kmh WSW 5.8 mph9.3 kmh 30.06 in1017.9 mb - 0.00 in0.0 mm 0.00 in0.0 mm
09:10 AM 35.0°F1.7°C 29.2°F-1.6°C 79% 1.2 mph W1.9 kmh W 3.5 mph5.6 kmh 30.06 in1017.9 mb - 0.00 in0.0 mm 0.00 in0.0 mm
09:05 AM 34.7°F1.5°C 29.2°F-1.6°C 80% Calm Calm 2.3 mph3.7 kmh 30.07 in1018.3 mb - 0.00 in0.0 mm 0.00 in0.0 mm
09:00 AM 34.4°F1.3°C 28.9°F-1.7°C 80% 2.3 mph WNW3.7 kmh WNW 4.6 mph7.4 kmh 30.07 in1018.3 mb - 0.00 in0.0 mm 0.00 in0.0 mm
08:55 AM 34.3°F1.3°C 29.1°F-1.6°C 81% Calm Calm -- 30.06 in1017.9 mb - 0.00 in0.0 mm 0.00 in0.0 mm
08:50 AM 34.0°F1.1°C 28.8°F-1.8°C 81% Calm Calm -- 30.06 in1017.9 mb - 0.00 in0.0 mm 0.00 in0.0 mm
08:45 AM 33.7°F0.9°C 28.5°F-1.9°C 81% Calm Calm -- 30.06 in1017.9 mb - 0.00 in0.0 mm 0.00 in0.0 mm
08:40 AM 33.5°F0.8°C 28.3°F-2.1°C 81% Calm Calm -- 30.06 in1017.9 mb - 0.00 in0.0 mm 0.00 in0.0 mm
08:35 AM 33.2°F0.7°C 28.3°F-2.1°C 82% Calm Calm -- 30.05 in1017.6 mb - 0.00 in0.0 mm 0.00 in0.0 mm
08:30 AM 33.0°F0.6°C 28.2°F-2.1°C 82% Calm Calm -- 30.05 in1017.6 mb - 0.00 in0.0 mm 0.00 in0.0 mm
08:25 AM 32.9°F0.5°C 28.0°F-2.2°C 82% Calm Calm -- 30.06 in1017.9 mb - 0.00 in0.0 mm 0.00 in0.0 mm
08:20 AM 32.6°F0.3°C 27.7°F-2.4°C 82% Calm Calm 3.5 mph5.6 kmh 30.06 in1017.9 mb - 0.00 in0.0 mm 0.00 in0.0 mm
08:15 AM 32.3°F0.2°C 27.7°F-2.4°C 83% Calm Calm -- 30.06 in1017.9 mb - 0.00 in0.0 mm 0.00 in0.0 mm
08:10 AM 32.0°F0.0°C 27.7°F-2.4°C 84% Calm Calm -- 30.06 in1017.9 mb - 0.00 in0.0 mm 0.00 in0.0 mm
08:05 AM 31.5°F-0.3°C 27.3°F-2.6°C 84% Calm Calm -- 30.06 in1017.9 mb - 0.00 in0.0 mm 0.00 in0.0 mm
08:00 AM 31.1°F-0.5°C 27.1°F-2.7°C 85% Calm Calm -- 30.06 in1017.9 mb - 0.00 in0.0 mm 0.00 in0.0 mm
07:55 AM 30.6°F-0.8°C 26.7°F-2.9°C 85% Calm Calm -- 30.06 in1017.9 mb - 0.00 in0.0 mm 0.00 in0.0 mm
07:50 AM 30.2°F-1.0°C 26.0°F-3.3°C 84% Calm Calm -- 30.06 in1017.9 mb - 0.00 in0.0 mm 0.00 in0.0 mm
07:45 AM 29.9°F-1.2°C 25.6°F-3.6°C 84% Calm Calm -- 30.06 in1017.9 mb - 0.00 in0.0 mm 0.00 in0.0 mm
07:40 AM 29.6°F-1.3°C 25.4°F-3.7°C 84% Calm Calm -- 30.06 in1017.9 mb - 0.00 in0.0 mm 0.00 in0.0 mm
07:35 AM 29.4°F-1.4°C 25.2°F-3.8°C 84% Calm Calm -- 30.06 in1017.9 mb - 0.00 in0.0 mm 0.00 in0.0 mm
07:30 AM 29.3°F-1.5°C 25.1°F-3.8°C 84% Calm Calm -- 30.05 in1017.6 mb - 0.00 in0.0 mm 0.00 in0.0 mm
07:25 AM 29.3°F-1.5°C 24.8°F-4.0°C 83% Calm Calm -- 30.05 in1017.6 mb - 0.00 in0.0 mm 0.00 in0.0 mm
07:20 AM 29.3°F-1.5°C 24.7°F-4.1°C 83% Calm Calm -- 30.05 in1017.6 mb - 0.00 in0.0 mm 0.00 in0.0 mm
07:15 AM 29.2°F-1.6°C 24.7°F-4.1°C 83% Calm Calm -- 30.05 in1017.6 mb - 0.00 in0.0 mm 0.00 in0.0 mm
07:10 AM 29.2°F-1.6°C 24.7°F-4.1°C 83% Calm Calm -- 30.05 in1017.6 mb - 0.00 in0.0 mm 0.00 in0.0 mm
07:05 AM 29.2°F-1.6°C 24.7°F-4.1°C 83% Calm Calm -- 30.05 in1017.6 mb - 0.00 in0.0 mm 0.00 in0.0 mm
07:00 AM 29.2°F-1.6°C 24.6°F-4.1°C 83% Calm Calm -- 30.05 in1017.6 mb - 0.00 in0.0 mm 0.00 in0.0 mm
06:55 AM 29.1°F-1.6°C 24.6°F-4.1°C 83% Calm Calm -- 30.05 in1017.6 mb - 0.00 in0.0 mm 0.00 in0.0 mm
06:50 AM 29.0°F-1.7°C 24.5°F-4.2°C 83% Calm Calm -- 30.05 in1017.6 mb - 0.00 in0.0 mm 0.00 in0.0 mm
06:45 AM 29.0°F-1.7°C 24.5°F-4.2°C 83% Calm Calm -- 30.05 in1017.6 mb - 0.00 in0.0 mm 0.00 in0.0 mm
06:40 AM 29.0°F-1.7°C 24.5°F-4.2°C 83% Calm Calm -- 30.05 in1017.6 mb - 0.00 in0.0 mm 0.00 in0.0 mm
06:35 AM 29.0°F-1.7°C 24.5°F-4.2°C 83% Calm Calm -- 30.05 in1017.6 mb - 0.00 in0.0 mm 0.00 in0.0 mm
06:30 AM 29.0°F-1.7°C 24.5°F-4.2°C 83% Calm Calm -- 30.05 in1017.6 mb - 0.00 in0.0 mm 0.00 in0.0 mm
06:25 AM 29.1°F-1.6°C 24.5°F-4.2°C 83% Calm Calm -- 30.05 in1017.6 mb - 0.00 in0.0 mm 0.00 in0.0 mm
06:20 AM 29.1°F-1.6°C 24.3°F-4.3°C 82% Calm Calm -- 30.05 in1017.6 mb - 0.00 in0.0 mm 0.00 in0.0 mm
06:15 AM 29.2°F-1.6°C 24.4°F-4.2°C 82% Calm Calm -- 30.06 in1017.9 mb - 0.00 in0.0 mm 0.00 in0.0 mm
06:10 AM 29.3°F-1.5°C 24.5°F-4.2°C 82% Calm Calm -- 30.05 in1017.6 mb - 0.00 in0.0 mm 0.00 in0.0 mm
06:05 AM 29.4°F-1.4°C 24.6°F-4.1°C 82% Calm Calm -- 30.05 in1017.6 mb - 0.00 in0.0 mm 0.00 in0.0 mm
06:00 AM 29.5°F-1.4°C 24.4°F-4.2°C 81% Calm Calm -- 30.05 in1017.6 mb - 0.00 in0.0 mm 0.00 in0.0 mm
05:55 AM 29.7°F-1.3°C 24.6°F-4.1°C 81% Calm Calm -- 30.05 in1017.6 mb - 0.00 in0.0 mm 0.00 in0.0 mm
05:50 AM 29.8°F-1.2°C 24.7°F-4.1°C 81% Calm Calm -- 30.05 in1017.6 mb - 0.00 in0.0 mm 0.00 in0.0 mm
05:45 AM 30.0°F-1.1°C 24.5°F-4.2°C 80% Calm Calm -- 30.05 in1017.6 mb - 0.00 in0.0 mm 0.00 in0.0 mm
05:40 AM 30.1°F-1.1°C 24.7°F-4.1°C 80% Calm Calm -- 30.05 in1017.6 mb - 0.00 in0.0 mm 0.00 in0.0 mm
05:35 AM 30.3°F-0.9°C 24.6°F-4.1°C 79% Calm Calm -- 30.05 in1017.6 mb - 0.00 in0.0 mm 0.00 in0.0 mm
05:30 AM 30.4°F-0.9°C 24.7°F-4.1°C 79% Calm Calm -- 30.05 in1017.6 mb - 0.00 in0.0 mm 0.00 in0.0 mm
05:25 AM 30.6°F-0.8°C 24.9°F-3.9°C 79% Calm Calm -- 30.05 in1017.6 mb - 0.00 in0.0 mm 0.00 in0.0 mm
05:20 AM 30.7°F-0.7°C 25.0°F-3.9°C 79% Calm Calm -- 30.05 in1017.6 mb - 0.00 in0.0 mm 0.00 in0.0 mm
05:15 AM 30.8°F-0.7°C 24.7°F-4.1°C 78% Calm Calm -- 30.05 in1017.6 mb - 0.00 in0.0 mm 0.00 in0.0 mm
05:10 AM 30.9°F-0.6°C 25.2°F-3.8°C 79% Calm Calm -- 30.05 in1017.6 mb - 0.00 in0.0 mm 0.00 in0.0 mm
05:05 AM 31.0°F-0.6°C 24.9°F-3.9°C 78% Calm Calm 1.2 mph1.9 kmh 30.05 in1017.6 mb - 0.00 in0.0 mm 0.00 in0.0 mm
05:00 AM 31.1°F-0.5°C 25.0°F-3.9°C 78% Calm Calm -- 30.05 in1017.6 mb - 0.00 in0.0 mm 0.00 in0.0 mm
04:55 AM 31.2°F-0.4°C 25.1°F-3.8°C 78% Calm Calm -- 30.05 in1017.6 mb - 0.00 in0.0 mm 0.00 in0.0 mm
04:50 AM 31.2°F-0.4°C 25.1°F-3.8°C 78% Calm Calm -- 30.05 in1017.6 mb - 0.00 in0.0 mm 0.00 in0.0 mm
04:45 AM 31.2°F-0.4°C 25.1°F-3.8°C 78% Calm Calm -- 30.05 in1017.6 mb - 0.00 in0.0 mm 0.00 in0.0 mm
04:40 AM 31.2°F-0.4°C 25.1°F-3.8°C 78% Calm Calm -- 30.05 in1017.6 mb - 0.00 in0.0 mm 0.00 in0.0 mm
04:35 AM 31.1°F-0.5°C 25.1°F-3.8°C 78% Calm Calm -- 30.05 in1017.6 mb - 0.00 in0.0 mm 0.00 in0.0 mm
04:30 AM 31.0°F-0.6°C 25.2°F-3.8°C 79% Calm Calm -- 30.05 in1017.6 mb - 0.00 in0.0 mm 0.00 in0.0 mm
04:25 AM 30.9°F-0.6°C 25.2°F-3.8°C 79% Calm Calm -- 30.05 in1017.6 mb - 0.00 in0.0 mm 0.00 in0.0 mm
04:20 AM 30.7°F-0.7°C 25.0°F-3.9°C 79% Calm Calm 4.6 mph7.4 kmh 30.05 in1017.6 mb - 0.00 in0.0 mm 0.00 in0.0 mm
04:15 AM 30.7°F-0.7°C 25.0°F-3.9°C 79% Calm Calm -- 30.05 in1017.6 mb - 0.00 in0.0 mm 0.00 in0.0 mm
04:10 AM 30.8°F-0.7°C 25.1°F-3.8°C 79% Calm Calm -- 30.05 in1017.6 mb - 0.00 in0.0 mm 0.00 in0.0 mm
04:05 AM 30.9°F-0.6°C 25.4°F-3.7°C 80% Calm Calm -- 30.05 in1017.6 mb - 0.00 in0.0 mm 0.00 in0.0 mm
04:00 AM 31.0°F-0.6°C 25.2°F-3.8°C 79% Calm Calm -- 30.05 in1017.6 mb - 0.00 in0.0 mm 0.00 in0.0 mm
03:55 AM 31.1°F-0.5°C 25.0°F-3.9°C 78% Calm Calm -- 30.05 in1017.6 mb - 0.00 in0.0 mm 0.00 in0.0 mm
03:50 AM 31.2°F-0.4°C 25.2°F-3.8°C 78% Calm Calm -- 30.05 in1017.6 mb - 0.00 in0.0 mm 0.00 in0.0 mm
03:45 AM 31.4°F-0.3°C 25.1°F-3.8°C 77% Calm Calm -- 30.05 in1017.6 mb - 0.00 in0.0 mm 0.00 in0.0 mm
03:40 AM 31.6°F-0.2°C 25.2°F-3.8°C 77% Calm Calm -- 30.05 in1017.6 mb - 0.00 in0.0 mm 0.00 in0.0 mm
03:35 AM 31.8°F-0.1°C 25.4°F-3.7°C 77% Calm Calm -- 30.05 in1017.6 mb - 0.00 in0.0 mm 0.00 in0.0 mm
03:30 AM 32.0°F0.0°C 25.3°F-3.7°C 76% Calm Calm -- 30.05 in1017.6 mb - 0.00 in0.0 mm 0.00 in0.0 mm
03:25 AM 32.1°F0.1°C 25.7°F-3.5°C 77% Calm Calm -- 30.05 in1017.6 mb - 0.00 in0.0 mm 0.00 in0.0 mm
03:20 AM 32.3°F0.2°C 25.9°F-3.4°C 77% Calm Calm -- 30.05 in1017.6 mb - 0.00 in0.0 mm 0.00 in0.0 mm
03:15 AM 32.4°F0.2°C 25.7°F-3.5°C 76% Calm Calm -- 30.05 in1017.6 mb - 0.00 in0.0 mm 0.00 in0.0 mm
03:10 AM 32.4°F0.2°C 25.7°F-3.5°C 76% 1.2 mph SW1.9 kmh SW 5.8 mph9.3 kmh 30.06 in1017.9 mb - 0.00 in0.0 mm 0.00 in0.0 mm
03:05 AM 32.4°F0.2°C 25.7°F-3.5°C 76% Calm Calm -- 30.06 in1017.9 mb - 0.00 in0.0 mm 0.00 in0.0 mm
03:00 AM 32.5°F0.3°C 25.8°F-3.4°C 76% Calm Calm -- 30.06 in1017.9 mb - 0.00 in0.0 mm 0.00 in0.0 mm
02:50 AM 32.6°F0.3°C 25.6°F-3.6°C 75% Calm Calm -- 30.07 in1018.3 mb - 0.00 in0.0 mm 0.00 in0.0 mm
02:45 AM 32.7°F0.4°C 25.6°F-3.6°C 75% Calm Calm -- 30.07 in1018.3 mb - 0.00 in0.0 mm 0.00 in0.0 mm
02:40 AM 32.8°F0.4°C 25.8°F-3.4°C 75% Calm Calm -- 30.07 in1018.3 mb - 0.00 in0.0 mm 0.00 in0.0 mm
02:35 AM 32.9°F0.5°C 25.8°F-3.4°C 75% Calm Calm -- 30.07 in1018.3 mb - 0.00 in0.0 mm 0.00 in0.0 mm
02:30 AM 33.0°F0.6°C 25.9°F-3.4°C 75% Calm Calm -- 30.07 in1018.3 mb - 0.00 in0.0 mm 0.00 in0.0 mm
02:25 AM 33.1°F0.6°C 26.0°F-3.3°C 75% Calm Calm 2.3 mph3.7 kmh 30.07 in1018.3 mb - 0.00 in0.0 mm 0.00 in0.0 mm
02:20 AM 33.2°F0.7°C 25.8°F-3.4°C 74% Calm Calm -- 30.07 in1018.3 mb - 0.00 in0.0 mm 0.00 in0.0 mm
02:15 AM 33.3°F0.7°C 25.9°F-3.4°C 74% Calm Calm -- 30.07 in1018.3 mb - 0.00 in0.0 mm 0.00 in0.0 mm
02:10 AM 33.4°F0.8°C 26.0°F-3.3°C 74% Calm Calm -- 30.07 in1018.3 mb - 0.00 in0.0 mm 0.00 in0.0 mm
02:05 AM 33.4°F0.8°C 26.0°F-3.3°C 74% Calm Calm -- 30.07 in1018.3 mb - 0.00 in0.0 mm 0.00 in0.0 mm
02:00 AM 33.5°F0.8°C 26.1°F-3.3°C 74% Calm Calm -- 30.07 in1018.3 mb - 0.00 in0.0 mm 0.00 in0.0 mm
01:55 AM 33.7°F0.9°C 26.3°F-3.2°C 74% Calm Calm -- 30.07 in1018.3 mb - 0.00 in0.0 mm 0.00 in0.0 mm
01:50 AM 33.8°F1.0°C 26.4°F-3.1°C 74% Calm Calm -- 30.07 in1018.3 mb - 0.00 in0.0 mm 0.00 in0.0 mm
01:45 AM 34.0°F1.1°C 26.3°F-3.2°C 73% Calm Calm -- 30.07 in1018.3 mb - 0.00 in0.0 mm 0.00 in0.0 mm
01:40 AM 34.2°F1.2°C 26.4°F-3.1°C 73% Calm Calm -- 30.08 in1018.6 mb - 0.00 in0.0 mm 0.00 in0.0 mm
01:35 AM 34.4°F1.3°C 26.6°F-3.0°C 73% Calm Calm -- 30.08 in1018.6 mb - 0.00 in0.0 mm 0.00 in0.0 mm
01:30 AM 34.4°F1.3°C 26.6°F-3.0°C 73% Calm Calm -- 30.08 in1018.6 mb - 0.00 in0.0 mm 0.00 in0.0 mm
01:25 AM 34.4°F1.3°C 26.6°F-3.0°C 73% Calm Calm 4.6 mph7.4 kmh 30.08 in1018.6 mb - 0.00 in0.0 mm 0.00 in0.0 mm
01:20 AM 34.4°F1.3°C 26.6°F-3.0°C 73% Calm Calm 4.6 mph7.4 kmh 30.08 in1018.6 mb - 0.00 in0.0 mm 0.00 in0.0 mm
01:15 AM 34.4°F1.3°C 26.3°F-3.2°C 72% Calm Calm -- 30.08 in1018.6 mb - 0.00 in0.0 mm 0.00 in0.0 mm
01:10 AM 34.4°F1.3°C 26.3°F-3.2°C 72% Calm Calm -- 30.07 in1018.3 mb - 0.00 in0.0 mm 0.00 in0.0 mm
01:05 AM 34.6°F1.4°C 26.2°F-3.2°C 71% Calm Calm -- 30.08 in1018.6 mb - 0.00 in0.0 mm 0.00 in0.0 mm
01:00 AM 34.8°F1.6°C 26.4°F-3.1°C 71% 2.3 mph SW3.7 kmh SW 3.5 mph5.6 kmh 30.08 in1018.6 mb - 0.00 in0.0 mm 0.00 in0.0 mm
12:55 AM 35.1°F1.7°C 26.6°F-3.0°C 71% Calm Calm -- 30.08 in1018.6 mb - 0.00 in0.0 mm 0.00 in0.0 mm
12:50 AM 35.2°F1.8°C 26.7°F-2.9°C 71% Calm Calm -- 30.08 in1018.6 mb - 0.00 in0.0 mm 0.00 in0.0 mm
12:45 AM 35.3°F1.8°C 26.8°F-2.9°C 71% 1.2 mph WNW1.9 kmh WNW 3.5 mph5.6 kmh 30.08 in1018.6 mb - 0.00 in0.0 mm 0.00 in0.0 mm
12:40 AM 35.3°F1.8°C 26.5°F-3.1°C 70% 2.3 mph WNW3.7 kmh WNW 9.2 mph14.8 kmh 30.08 in1018.6 mb - 0.00 in0.0 mm 0.00 in0.0 mm
12:35 AM 35.2°F1.8°C 26.7°F-2.9°C 71% 3.5 mph WNW5.6 kmh WNW 9.2 mph14.8 kmh 30.08 in1018.6 mb - 0.00 in0.0 mm 0.00 in0.0 mm
12:30 AM 35.2°F1.8°C 26.7°F-2.9°C 71% 2.3 mph W3.7 kmh W -- 30.08 in1018.6 mb - 0.00 in0.0 mm 0.00 in0.0 mm
12:25 AM 35.2°F1.8°C 26.7°F-2.9°C 71% Calm Calm 3.5 mph5.6 kmh 30.08 in1018.6 mb - 0.00 in0.0 mm 0.00 in0.0 mm
12:20 AM 35.3°F1.8°C 27.2°F-2.7°C 72% 1.2 mph W1.9 kmh W 4.6 mph7.4 kmh 30.07 in1018.3 mb - 0.00 in0.0 mm 0.00 in0.0 mm
12:15 AM 35.4°F1.9°C 27.3°F-2.6°C 72% Calm Calm -- 30.07 in1018.3 mb - 0.00 in0.0 mm 0.00 in0.0 mm
12:10 AM 35.5°F1.9°C 27.4°F-2.6°C 72% Calm Calm 2.3 mph3.7 kmh 30.07 in1018.3 mb - 0.00 in0.0 mm 0.00 in0.0 mm
12:05 AM 35.7°F2.1°C 27.2°F-2.7°C 71% Calm Calm -- 30.07 in1018.3 mb - 0.00 in0.0 mm 0.00 in0.0 mm
12:00 AM 35.8°F2.1°C 27.3°F-2.6°C 71% Calm Calm 4.6 mph7.4 kmh 30.07 in1018.3 mb - 0.00 in0.0 mm 0.00 in0.0 mm